• Join FlightAware (Why Join?)
  • Login
  • US Flag 
05:59AM EST


 

Airport Tracker/Info


-or-


 

Live Flight TrackerFlight Track Log ✈ F-HPJG ✈ 25-Jun-2013 ✈ LFPG / CDG - RJAA / NRT

Flight Track Log - Related Links

Times and Time Zones

All times are in EDT time to prevent confusion due to time zone crossing. See the F-HPJG flight status page for this flight to view local times or setup timezone preferences in your user account.

Time Position Orientation Groundspeed Altitude Reporting Facility
EDT Latitude Longitude Course Direction KTS MPH feet Rate Location/Type
08:01AM 49.0210 2.5750 33° Northeast 18 21  Level FlightAware
08:02AM 49.1243 2.6609 33° Northeast  Level Estimated
08:02AM 49.0210 2.5700 270° West 14 16  Level FlightAware
08:02AM 49.0200 2.5670 243° Southwest 7 8  Level FlightAware
08:03AM 49.0210 2.5660 327° Northwest 3 3  Level FlightAware
08:04AM 49.0220 2.5660 360° North 2 2  Level FlightAware
08:06AM 49.2152 2.7587 33° Northeast  Level Estimated
08:07AM 49.3266 2.8705 33° Northeast  Level Estimated
08:07AM 49.0230 2.5660 33° Northeast 8 9  Level FlightAware
08:08AM 49.4378 2.9828 33° Northeast  Level Estimated
08:08AM 49.0230 2.5650 270° West 5 6  Level FlightAware
08:08AM 49.0230 2.5640 270° West 1 1  Level FlightAware
08:09AM 49.0230 2.5620 270° West 53 61  Level FlightAware
08:10AM 49.0230 2.5540 270° West 88 101 120 Level FlightAware
08:10AM 49.0220 2.5300 266° West 88 101 100 840 Climbing FlightAware
08:10AM 49.0200 2.5050 263° West 161 185 600 1,560 Climbing FlightAware
08:10AM 49.0190 2.4930 263° West 161 185 900 960 Climbing FlightAware
08:11AM 49.0190 2.4820 270° West 162 186 1,100 1,380 Climbing FlightAware
08:11AM 49.0160 2.4280 265° West 166 191 2,300 1,740 Climbing FlightAware
08:12AM 49.0290 2.4030 308° West 163 188 3,000 1,140 Climbing FlightAware
08:12AM 49.0490 2.3830 327° Northwest 191 220 3,400 900 Climbing FlightAware
08:13AM 49.0730 2.3620 330° Northwest 227 261 3,900 1,020 Climbing FlightAware
08:13AM 49.0950 2.3410 328° Northwest 255 293 4,300 1,860 Climbing FlightAware
08:14AM 49.1260 2.3120 329° Northwest 258 297 5,600 2,700 Climbing FlightAware
08:14AM 49.1390 2.3030 336° Northwest 257 296 6,200 1,860 Climbing FlightAware
08:14AM 49.1620 2.3060 North 259 298 6,800 2,100 Climbing FlightAware
08:15AM 49.1970 2.3280 22° Northeast 266 306 8,200 2,880 Climbing FlightAware
08:15AM 49.2350 2.3540 24° Northeast 270 311 9,600 2,520 Climbing FlightAware
08:16AM 49.2420 2.3600 29° Northeast 271 312 9,800 1,560 Climbing FlightAware
08:16AM 49.3020 2.4020 25° Northeast 306 352 11,100 1,260 Climbing FlightAware
08:17AM 49.3620 2.4410 23° Northeast 353 406 11,700 1,020 Climbing FlightAware
08:18AM 49.4230 2.4820 24° Northeast 382 440 12,500 1,740 Climbing FlightAware
08:18AM 49.5020 2.5330 23° Northeast 395 455 14,200 2,160 Climbing FlightAware
08:19AM 49.5650 2.5750 23° Northeast 404 465 15,600 2,160 Climbing FlightAware
08:20AM 49.6400 2.6250 23° Northeast 410 472 17,200 1,980 Climbing FlightAware
08:21AM 49.7430 2.6960 24° Northeast 423 487 19,000 1,920 Climbing FlightAware
08:21AM 49.8220 2.7560 26° Northeast 431 496 20,500 1,800 Climbing FlightAware
08:22AM 49.8930 2.8140 28° Northeast 439 505 21,600 1,620 Climbing FlightAware
08:23AM 49.9730 2.8770 27° Northeast 445 512 22,800 1,680 Climbing FlightAware
08:24AM 50.0410 2.9310 27° Northeast 450 518 23,900 1,560 Climbing FlightAware
08:24AM 50.1060 2.9830 27° Northeast 455 524 24,700 1,440 Climbing FlightAware
08:25AM 50.1810 3.0380 25° Northeast 459 528 25,700 1,320 Climbing FlightAware
08:25AM 50.2512 3.0889 25° Northeast 482 555 26,400 1,200 Climbing FlightAware UK
08:25AM 50.2670 3.0990 25° Northeast 466 536 26,600 1,320 Climbing FlightAware
08:26AM 50.3260 3.1430 25° Northeast 467 537 27,400 1,200 Climbing FlightAware
08:27AM 50.4150 3.2080 25° Northeast 476 548 28,200 1,140 Climbing FlightAware
08:28AM 50.5060 3.2750 25° Northeast 478 550 29,100 1,380 Climbing FlightAware
08:28AM 50.5840 3.3333 25° Northeast 492 566 30,100 1,620 Climbing FlightAware UK
08:28AM 50.5860 3.3340 25° Northeast 468 539 30,200 1,140 Climbing FlightAware
08:29AM 50.6680 3.3960 25° Northeast 488 562 30,900 1,020 Climbing FlightAware UK
08:29AM 50.6760 3.4010 25° Northeast 478 550 31,000 1,020 Climbing FlightAware
08:30AM 50.7550 3.4600 25° Northeast 480 552 31,700 1,020 Climbing FlightAware
08:30AM 50.8460 3.5290 26° Northeast 481 554 32,500 900 Climbing FlightAware
08:31AM 50.9260 3.5890 25° Northeast 479 551 33,000 840 Climbing FlightAware
08:32AM 51.0170 3.6570 25° Northeast 479 551 33,700 840 Climbing FlightAware
08:32AM 51.0990 3.7190 25° Northeast 483 556 34,200 720 Climbing FlightAware
08:33AM 51.1920 3.7900 26° Northeast 485 558 34,800 540 Climbing FlightAware
08:34AM 51.2730 3.8520 26° Northeast 485 558 35,000 120 Climbing FlightAware
08:35AM 51.3550 3.9160 26° Northeast 492 566 35,000  Level FlightAware
08:35AM 51.4270 4.0030 37° Northeast 487 560 35,000  Level FlightAware
08:36AM 51.4960 4.0930 39° Northeast 493 567 35,000  Level FlightAware
08:37AM 51.5748 4.1940 39° Northeast 492 566 35,000  Level FlightAware UK
08:37AM 51.5750 4.1960 39° Northeast 487 560 35,000  Level FlightAware
08:37AM 51.6384 4.2772 39° Northeast 490 564 35,000  Level FlightAware UK
08:37AM 51.6450 4.2890 39° Northeast 487 560 35,000  Level FlightAware
08:38AM 51.7122 4.3746 39° Northeast 492 566 35,000  Level FlightAware UK
08:38AM 51.7110 4.3760 39° Northeast 486 559 35,000  Level FlightAware
08:38AM 51.7758 4.4587 39° Northeast 490 564 35,000  Level FlightAware UK
08:39AM 51.8080 4.5030 39° Northeast 493 567 35,000  Level FlightAware
08:39AM 51.8760 4.5950 39° Northeast 495 570 35,000  Level FlightAware
08:39AM 51.8815 4.5998 39° Northeast 488 562 35,000  Level FlightAware UK
08:40AM 51.9341 4.6703 39° Northeast 490 564 35,000  Level FlightAware UK
08:40AM 51.9480 4.6920 39° Northeast 497 572 35,000  Level FlightAware
08:41AM 52.0340 4.8070 39° Northeast 500 575 35,000  Level FlightAware
08:42AM 52.1020 4.8990 40° Northeast 502 578 35,000  Level FlightAware
08:42AM 52.1800 5.0050 40° Northeast 504 580 35,000  Level FlightAware
08:43AM 52.2540 5.1050 40° Northeast 502 578 35,000  Level FlightAware
08:44AM 52.3290 5.2070 40° Northeast 501 577 35,000  Level FlightAware
08:44AM 52.4060 5.3140 40° Northeast 504 580 35,000  Level FlightAware
08:45AM 52.4740 5.4090 40° Northeast 505 581 35,000  Level FlightAware
08:45AM 52.4744 5.4097 40° Northeast 490 564 35,000  Level FlightAware UK
08:46AM 52.5225 5.4981 40° Northeast 490 564 35,000  Level FlightAware UK
08:46AM 52.5320 5.5130 40° Northeast 508 585 35,000 420 Level FlightAware
08:46AM 52.6050 5.6420 47° Northeast 506 582 35,400 600 Climbing FlightAware
08:47AM 52.6696 5.7519 47° Northeast 494 568 35,900 840 Climbing FlightAware UK
08:47AM 52.6700 5.7560 47° Northeast 505 581 36,000 120 Climbing FlightAware
08:48AM 52.7450 5.8900 47° Northeast 507 583 36,000  Level FlightAware
08:49AM 52.8080 6.0020 47° Northeast 505 581 36,000  Level FlightAware
08:49AM 52.8630 6.0990 47° Northeast 505 581 36,000  Level FlightAware
08:50AM 52.9360 6.2310 47° Northeast 506 582 36,000  Level FlightAware
08:50AM 52.9455 6.2467 47° Northeast 1 1 36,000  Level FlightAware UK
08:51AM 53.0030 6.3530 48° Northeast 506 582 36,000  Level FlightAware
08:51AM 53.0730 6.4800 47° Northeast 505 581 36,000  Level FlightAware
08:52AM 53.1380 6.5990 48° Northeast 505 581 36,000  Level FlightAware
08:53AM 53.2240 6.7560 48° Northeast 507 583 36,000  Level FlightAware
08:54AM 53.2860 6.8710 48° Northeast 508 585 36,000  Level FlightAware
08:54AM 53.3505 6.9907 48° Northeast 1 1 36,000  Level FlightAware UK
08:54AM 53.3580 7.0050 48° Northeast 509 586 36,000  Level FlightAware
08:55AM 53.4210 7.1220 48° Northeast 509 586 36,000  Level FlightAware
08:56AM 53.4910 7.2540 48° Northeast 510 587 36,000  Level FlightAware
08:57AM 53.5590 7.3820 48° Northeast 511 588 36,000  Level FlightAware
08:57AM 53.6190 7.4930 48° Northeast 506 582 36,000  Level FlightAware
08:58AM 53.6890 7.6240 48° Northeast 507 583 36,000  Level FlightAware
08:59AM 53.7510 7.7390 48° Northeast 505 581 36,000  Level FlightAware
08:59AM 53.8250 7.8740 47° Northeast 504 580 36,000  Level FlightAware
09:00AM 53.8880 7.9880 47° Northeast 506 582 36,000  Level FlightAware
09:01AM 53.9550 8.1120 47° Northeast 510 587 36,000  Level FlightAware
09:01AM 54.0190 8.2540 52° Northeast 513 590 36,000  Level FlightAware
09:02AM 54.0820 8.3750 48° Northeast 513 590 36,000  Level FlightAware
09:03AM 54.1660 8.5390 49° Northeast 514 592 36,000  Level FlightAware
09:04AM 54.2290 8.6610 49° Northeast 512 589 36,000  Level FlightAware
09:04AM 54.2990 8.7970 49° Northeast 512 589 36,000  Level FlightAware
09:05AM 54.3700 8.9330 48° Northeast 511 588 36,000  Level FlightAware
09:06AM 54.4340 9.0530 47° Northeast 506 582 36,000  Level FlightAware
09:07AM 54.5030 9.1910 49° Northeast 509 586 36,000  Level FlightAware
09:07AM 54.5550 9.3010 51° Northeast 510 587 36,000  Level FlightAware
09:08AM 54.6300 9.4550 50° Northeast 506 582 36,000  Level FlightAware
09:09AM 54.6930 9.5870 50° Northeast 511 588 36,000  Level FlightAware
09:09AM 54.7450 9.6940 50° Northeast 511 588 36,000  Level FlightAware
09:11AM 54.8410 9.8960 50° Northeast 512 589 36,000  Level FlightAware
09:11AM 54.8920 10.0010 50° Northeast 512 589 36,000  Level FlightAware
09:12AM 54.9730 10.1750 51° Northeast 513 590 36,000  Level FlightAware
09:13AM 55.0540 10.3480 51° Northeast 511 588 36,000  Level FlightAware
09:13AM 55.1140 10.4770 51° Northeast 511 588 36,000  Level FlightAware
09:14AM 55.1810 10.6220 51° Northeast 509 586 36,000  Level FlightAware
09:15AM 55.2460 10.7640 51° Northeast 509 586 36,000  Level FlightAware
09:16AM 55.3490 10.9880 51° Northeast 511 588 36,000  Level FlightAware
09:17AM 55.4130 11.1310 52° Northeast 511 588 36,000  Level FlightAware
09:17AM 55.4750 11.2680 51° Northeast 507 583 36,000  Level FlightAware
09:18AM 55.5330 11.3980 52° Northeast 504 580 36,000  Level FlightAware
09:19AM 55.5960 11.5380 51° Northeast 505 581 36,000  Level FlightAware
09:20AM 55.6590 11.6810 52° Northeast 507 583 36,000  Level FlightAware
09:20AM 55.7230 11.8270 52° Northeast 508 585 36,000  Level FlightAware
09:21AM 55.7890 11.9780 52° Northeast 508 585 36,000  Level FlightAware
09:22AM 55.8490 12.1140 52° Northeast 508 585 36,000  Level FlightAware
09:23AM 55.9200 12.2800 53° Northeast 510 587 36,000  Level FlightAware
09:23AM 55.9740 12.4040 52° Northeast 512 589 36,000  Level FlightAware
09:24AM 56.0390 12.5580 53° Northeast 511 588 36,000 60 Level FlightAware
09:25AM 56.1020 12.7040 52° Northeast 515 593 36,100 360 Climbing FlightAware
09:25AM 56.1510 12.8210 53° Northeast 515 593 36,500 600 Climbing FlightAware
09:26AM 56.2230 12.9920 53° Northeast 517 595 37,000 300 Climbing FlightAware
09:27AM 56.2770 13.1230 53° Northeast 519 597 37,000  Level FlightAware
09:27AM 56.3370 13.2660 53° Northeast 516 594 37,000  Level FlightAware
09:28AM 56.3990 13.4170 53° Northeast 516 594 37,000  Level FlightAware
09:29AM 56.4550 13.5540 53° Northeast 517 595 37,000  Level FlightAware
09:29AM 56.5070 13.6820 54° Northeast 518 596 37,000  Level FlightAware
09:31AM 56.6110 13.9380 53° Northeast 515 593 37,000  Level FlightAware
09:32AM 56.6920 14.1390 54° Northeast 517 595 37,000  Level FlightAware
09:33AM 56.7710 14.3390 54° Northeast 519 597 37,000  Level FlightAware
09:33AM 56.8320 14.4940 54° Northeast 521 600 37,000  Level FlightAware
09:34AM 56.8920 14.6460 54° Northeast 521 600 37,000  Level FlightAware
09:35AM 56.9500 14.7960 55° Northeast 522 601 37,000  Level FlightAware
09:35AM 56.9970 14.9160 54° Northeast 523 602 37,000  Level FlightAware
09:36AM 57.0980 15.1790 55° Northeast 523 602 37,000  Level FlightAware
09:37AM 57.1770 15.3870 55° Northeast 519 597 37,000  Level FlightAware
09:38AM 57.2330 15.5340 55° Northeast 520 598 37,000  Level FlightAware
09:39AM 57.2930 15.6940 55° Northeast 520 598 37,000  Level FlightAware
09:39AM 57.3410 15.8240 56° Northeast 522 601 37,000  Level FlightAware
09:40AM 57.4070 16.0020 55° Northeast 520 598 37,000  Level FlightAware
09:41AM 57.4750 16.1850 55° Northeast 520 598 37,000  Level FlightAware
09:42AM 57.5360 16.3540 56° Northeast 520 598 37,000  Level FlightAware
09:42AM 57.5890 16.5000 56° Northeast 522 601 37,000  Level FlightAware
09:43AM 57.6500 16.6680 56° Northeast 524 603 37,000  Level FlightAware
09:44AM 57.7090 16.8330 56° Northeast 525 604 37,000  Level FlightAware
09:44AM 57.7500 16.9490 56° Northeast 523 602 37,000  Level FlightAware
09:45AM 57.7900 17.0610 56° Northeast 523 602 37,000  Level FlightAware
09:46AM 57.8950 17.3600 56° Northeast 520 598 37,000  Level FlightAware
09:47AM 57.9600 17.5480 57° Northeast 521 600 37,000  Level FlightAware
09:48AM 58.0130 17.7000 57° Northeast 522 601 37,000  Level FlightAware
09:48AM 58.0710 17.8690 57° Northeast 522 601 37,000  Level FlightAware
09:49AM 58.1200 18.0130 57° Northeast 522 601 37,000  Level FlightAware
09:50AM 58.1830 18.2000 57° Northeast 522 601 37,000  Level FlightAware
09:51AM 58.2340 18.3520 57° Northeast 523 602 37,000  Level FlightAware
09:51AM 58.3010 18.5520 57° Northeast 524 603 37,000  Level FlightAware
09:52AM 58.3520 18.7050 58° Northeast 523 602 37,000  Level FlightAware
09:53AM 58.4050 18.8680 58° Northeast 525 604 37,000  Level FlightAware
09:54AM 58.4600 19.0350 58° Northeast 526 605 37,000  Level FlightAware
09:54AM 58.5050 19.1760 59° Northeast 526 605 37,000  Level FlightAware
09:55AM 58.5410 19.2860 58° Northeast 526 605 37,000  Level FlightAware
09:55AM 58.6020 19.4770 58° Northeast 522 601 37,000  Level FlightAware
09:56AM 58.6540 19.6410 59° Northeast 523 602 37,000  Level FlightAware
09:57AM 58.7020 19.7910 58° Northeast 522 601 37,000  Level FlightAware
09:57AM 58.7560 19.9640 59° Northeast 521 600 37,000  Level FlightAware
09:58AM 58.8100 20.1390 59° Northeast 520 598 37,000  Level FlightAware
09:59AM 58.8620 20.3060 59° Northeast 521 600 37,000  Level FlightAware
10:00AM 58.9170 20.4840 59° Northeast 520 598 37,000  Level FlightAware
10:01AM 58.9980 20.7520 60° Northeast 520 598 37,000  Level FlightAware
10:02AM 59.0890 21.0150 56° Northeast 525 604 37,000  Level FlightAware
10:03AM 59.1570 21.1740 50° Northeast 526 605 37,000  Level FlightAware
10:03AM 59.2130 21.3060 50° Northeast 523 602 37,000  Level FlightAware
10:04AM 59.2860 21.4810 51° Northeast 520 598 37,000  Level FlightAware
10:05AM 59.3470 21.6260 50° Northeast 521 600 37,000  Level FlightAware
10:05AM 59.3910 21.7320 51° Northeast 522 601 37,000  Level FlightAware
10:06AM 59.4660 21.9160 51° Northeast 522 601 37,000  Level FlightAware
10:07AM 59.5280 22.0670 51° Northeast 524 603 37,000  Level FlightAware
10:07AM 59.5960 22.2340 51° Northeast 523 602 37,000  Level FlightAware
10:08AM 59.6560 22.3840 52° Northeast 522 601 37,000  Level FlightAware
10:09AM 59.7150 22.5300 51° Northeast 522 601 37,000  Level FlightAware
10:09AM 59.7810 22.6970 52° Northeast 522 601 37,000  Level FlightAware
10:11AM 59.9040 23.0090 52° Northeast 523 602 37,000  Level FlightAware
10:12AM 60.0140 23.2930 52° Northeast 524 603 37,000  Level FlightAware
10:13AM 60.0720 23.4420 52° Northeast 524 603 37,000  Level FlightAware
10:13AM 60.1380 23.6140 52° Northeast 520 598 37,000  Level FlightAware
10:14AM 60.1930 23.7590 53° Northeast 518 596 37,000  Level FlightAware
10:14AM 60.2250 23.8450 53° Northeast 517 595 37,000  Level FlightAware
10:15AM 60.2770 23.9820 53° Northeast 516 594 37,000  Level FlightAware
10:16AM 60.3560 24.1940 53° Northeast 513 590 37,000  Level FlightAware
10:17AM 60.4160 24.3580 53° Northeast 513 590 37,000  Level FlightAware
10:17AM 60.4760 24.5190 53° Northeast 513 590 37,000  Level FlightAware
10:18AM 60.5290 24.6640 53° Northeast 514 592 37,000  Level FlightAware
10:19AM 60.5910 24.8350 54° Northeast 512 589 37,000  Level FlightAware
10:19AM 60.6500 24.9980 54° Northeast 513 590 37,000  Level FlightAware
10:20AM 60.7220 25.1990 54° Northeast 514 592 37,000  Level FlightAware
10:21AM 60.7830 25.3740 54° Northeast 511 588 37,000  Level FlightAware
10:22AM 60.8360 25.5230 54° Northeast 511 588 37,000  Level FlightAware
10:23AM 60.8900 25.6770 54° Northeast 511 588 37,000  Level FlightAware
10:23AM 60.9450 25.8350 54° Northeast 509 586 37,000  Level FlightAware
10:24AM 61.0140 26.0360 55° Northeast 507 583 37,000  Level FlightAware
10:25AM 61.0680 26.1950 55° Northeast 508 585 37,000  Level FlightAware
10:25AM 61.1330 26.3850 55° Northeast 507 583 37,000  Level FlightAware
10:26AM 61.1850 26.5410 55° Northeast 507 583 37,000  Level FlightAware
10:27AM 61.2460 26.7220 55° Northeast 506 582 37,000  Level FlightAware
10:27AM 61.2990 26.8830 56° Northeast 507 583 37,000  Level FlightAware
10:28AM 61.3490 27.0350 56° Northeast 507 583 37,000  Level FlightAware
10:29AM 61.4000 27.1890 55° Northeast 507 583 37,000  Level FlightAware
10:29AM 61.4560 27.3610 56° Northeast 507 583 37,000  Level FlightAware
10:30AM 61.5180 27.5530 56° Northeast 502 578 37,000  Level FlightAware
10:32AM 61.6250 27.8870 56° Northeast 503 579 37,000  Level FlightAware
10:32AM 61.6740 28.0440 57° Northeast 505 581 37,000  Level FlightAware
10:33AM 61.7380 28.2470 56° Northeast 509 586 37,000  Level FlightAware
10:34AM 61.7970 28.4380 57° Northeast 512 589 37,000  Level FlightAware
10:34AM 61.8490 28.6060 57° Northeast 514 592 37,000  Level FlightAware
10:36AM 61.5340 27.6020 237° Southwest 506 582 37,000  Level FlightAware
10:36AM 61.5570 27.6740 56° Northeast 507 583 37,000  Level FlightAware
10:37AM 62.0370 29.2260 56° Northeast 513 590 37,000  Level FlightAware
10:38AM 62.0840 29.3840 58° Northeast 512 589 37,000  Level FlightAware
10:39AM 62.1490 29.6040 58° Northeast 510 587 37,000  Level FlightAware
10:39AM 62.2030 29.7880 58° Northeast 510 587 37,000  Level FlightAware
10:40AM 62.2430 29.9280 58° Northeast 512 589 37,000  Level FlightAware
10:41AM 62.3070 30.1500 58° Northeast 513 590 37,000  Level FlightAware
10:42AM 62.3550 30.3160 58° Northeast 513 590 37,000  Level FlightAware
10:42AM 62.4180 30.5220 56° Northeast 37,000  Level FlightAware
10:43AM 62.4740 30.7100 57° Northeast 513 590 37,000  Level FlightAware
10:44AM 62.5340 30.9100 57° Northeast 513 590 37,000  Level FlightAware
10:45AM 62.5760 31.0530 57° Northeast 513 590 37,000  Level FlightAware
10:45AM 62.6180 31.1930 57° Northeast 513 590 37,000  Level FlightAware
10:46AM 62.6620 31.3400 57° Northeast 513 590 37,000  Level FlightAware
10:47AM 62.7150 31.5170 57° Northeast 513 590 37,000  Level FlightAware
10:47AM 62.7550 31.6540 57° Northeast 513 590 37,000  Level FlightAware
10:48AM 62.8080 31.8310 57° Northeast 513 590 37,000  Level FlightAware
10:49AM 62.8460 31.9570 57° Northeast 513 590 37,000  Level FlightAware
10:49AM 62.8980 32.1350 57° Northeast 513 590 37,000  Level FlightAware
10:50AM 62.9390 32.2730 57° Northeast 513 590 37,000  Level FlightAware
10:51AM 62.9950 32.4630 57° Northeast 513 590 37,000  Level FlightAware
10:51AM 63.0350 32.6010 57° Northeast 513 590 37,000  Level FlightAware
10:52AM 63.0760 32.7390 57° Northeast 513 590 37,000  Level FlightAware
10:53AM 63.1310 32.9260 57° Northeast 513 590 37,000  Level FlightAware
10:56AM 63.2988 33.5311 58° Northeast  Level Estimated
10:57AM 63.3635 33.7688 59° Northeast  Level Estimated
10:57AM 63.5690 34.3020 59° Northeast 499 574 37,000  Level FlightAware
10:58AM 63.6270 34.5030 57° Northeast 499 574 37,000  Level FlightAware
10:58AM 63.6720 34.6590 57° Northeast 499 574 37,000  Level FlightAware
10:59AM 63.7180 34.8230 58° Northeast 501 577 37,000  Level FlightAware
10:59AM 63.7680 35.0030 58° Northeast 501 577 37,000  Level FlightAware
11:01AM 63.8260 35.2100 58° Northeast 501 577 37,000  Level FlightAware
11:01AM 63.8980 35.4690 58° Northeast 501 577 37,000  Level FlightAware
11:02AM 63.9470 35.6520 59° Northeast 502 578 37,000  Level FlightAware
11:03AM 63.9960 35.8310 58° Northeast 503 579 37,000  Level FlightAware
11:03AM 64.0440 36.0100 58° Northeast 502 578 37,000  Level FlightAware
11:04AM 64.0940 36.2000 59° Northeast 501 577 37,000  Level FlightAware
11:05AM 64.1450 36.3950 59° Northeast 503 579 37,000  Level FlightAware
11:06AM 64.2210 36.6840 59° Northeast 503 579 37,000  Level FlightAware
11:06AM 64.2760 36.8990 59° Northeast 505 581 37,000  Level FlightAware
11:07AM 64.3240 37.0840 59° Northeast 507 583 37,000  Level FlightAware
11:08AM 64.3690 37.2620 60° Northeast 507 583 37,000  Level FlightAware
11:09AM 64.4240 37.4800 60° Northeast 506 582 37,000  Level FlightAware
11:09AM 64.4760 37.6890 60° Northeast 504 580 37,000  Level FlightAware
11:10AM 64.4980 37.7790 60° Northeast 503 579 37,000  Level FlightAware
11:11AM 64.5730 38.0820 60° Northeast 503 579 37,000  Level FlightAware
11:11AM 64.6170 38.2670 61° Northeast 506 582 37,000  Level FlightAware
11:12AM 64.6640 38.4640 61° Northeast 506 582 37,000  Level FlightAware
11:13AM 64.7070 38.6430 61° Northeast 505 581 37,000  Level FlightAware
11:14AM 64.7730 38.9210 61° Northeast 504 580 37,000  Level FlightAware
11:14AM 64.8220 39.1330 61° Northeast 506 582 37,000  Level FlightAware
11:15AM 64.8820 39.3940 61° Northeast 507 583 37,000  Level FlightAware
11:16AM 64.9420 39.6600 62° Northeast 506 582 37,000  Level FlightAware
11:17AM 64.9920 39.8790 62° Northeast 505 581 37,000  Level FlightAware
11:18AM 65.0430 40.1100 62° Northeast 505 581 37,000  Level FlightAware
11:19AM 65.1100 40.4150 62° Northeast 502 578 37,000  Level FlightAware
11:20AM 65.1600 40.6420 62° Northeast 501 577 37,000  Level FlightAware
11:20AM 65.2010 40.8320 63° Northeast 499 574 37,000  Level FlightAware
11:21AM 65.2460 41.0440 63° Northeast 497 572 37,000  Level FlightAware
11:22AM 65.3020 41.3100 63° Northeast 498 573 37,000  Level FlightAware
11:23AM 65.3470 41.5270 63° Northeast 498 573 37,000  Level FlightAware
11:23AM 65.3850 41.7110 64° Northeast 496 571 37,000  Level FlightAware
11:24AM 65.4320 41.9410 64° Northeast 495 570 37,000  Level FlightAware
11:25AM 65.5010 42.2830 64° Northeast 497 572 37,000  Level FlightAware
11:26AM 65.5410 42.4820 64° Northeast 501 577 37,000  Level FlightAware
11:27AM 65.5830 42.6950 64° Northeast 498 573 37,000  Level FlightAware
11:27AM 65.6290 42.9330 65° Northeast 499 574 37,000  Level FlightAware
11:28AM 65.6650 43.1220 65° Northeast 497 572 37,000  Level FlightAware
11:29AM 65.6980 43.2930 65° Northeast 495 570 37,000  Level FlightAware
11:29AM 65.7400 43.5130 65° Northeast 497 572 37,000  Level FlightAware
11:30AM 65.7830 43.7440 66° East 495 570 37,000  Level FlightAware
11:31AM 65.8360 44.0240 65° Northeast 493 567 37,000  Level FlightAware
11:32AM 65.8370 44.0320 73° East 493 567 37,000  Level FlightAware
11:32AM 65.8660 44.1830 65° Northeast 493 567 37,000  Level FlightAware
11:33AM 65.9070 44.3980 65° Northeast 493 567 37,000  Level FlightAware
11:34AM 65.9360 44.5530 65° Northeast 493 567 37,000  Level FlightAware
11:35AM 65.9740 44.7510 65° Northeast 493 567 37,000  Level FlightAware
11:35AM 66.0050 44.9150 65° Northeast 493 567 37,000  Level FlightAware
11:36AM 66.0350 45.0750 65° Northeast 493 567 37,000  Level FlightAware
11:37AM 66.0750 45.2830 65° Northeast 493 567 37,000  Level FlightAware
11:37AM 66.1130 45.4870 65° Northeast 493 567 37,000  Level FlightAware
11:38AM 66.1460 45.6610 65° Northeast 493 567 37,000  Level FlightAware
11:39AM 66.1750 45.8170 65° Northeast 493 567 37,000  Level FlightAware
11:40AM 66.2260 46.0870 65° Northeast 493 567 37,000  Level FlightAware
11:40AM 66.2620 46.2790 65° Northeast 493 567 37,000  Level FlightAware
11:41AM 66.2910 46.4370 65° Northeast 493 567 37,000  Level FlightAware
11:44AM 66.3932 47.1713 71° East  Level Estimated
11:45AM 66.4331 47.4666 71° East  Level Estimated
11:46AM 66.4725 47.7630 71° East  Level Estimated
11:47AM 66.5113 48.0602 72° East  Level Estimated
11:48AM 66.5495 48.3584 72° East  Level Estimated
11:49AM 66.5872 48.6574 72° East  Level Estimated
11:50AM 66.6243 48.9574 73° East  Level Estimated
11:51AM 66.6608 49.2583 73° East  Level Estimated
11:52AM 66.6967 49.5600 73° East  Level Estimated
11:53AM 66.7321 49.8627 73° East  Level Estimated
11:54AM 66.7669 50.1661 74° East  Level Estimated
11:55AM 66.8011 50.4705 74° East  Level Estimated
11:56AM 66.8347 50.7757 74° East  Level Estimated
11:57AM 66.8677 51.0817 75° East  Level Estimated
11:58AM 66.9001 51.3885 75° East  Level Estimated
11:59AM 66.9320 51.6962 75° East  Level Estimated
12:00PM 66.9632 52.0046 75° East  Level Estimated
12:01PM 66.9938 52.3138 76° East  Level Estimated
12:02PM 67.0239 52.6238 76° East  Level Estimated
12:03PM 67.0533 52.9346 76° East  Level Estimated
12:04PM 67.0821 53.2461 76° East  Level Estimated
12:05PM 67.1103 53.5583 77° East  Level Estimated
12:06PM 67.1379 53.8712 77° East  Level Estimated
12:07PM 67.1649 54.1849 77° East  Level Estimated
12:08PM 67.1913 54.4993 78° East  Level Estimated
12:09PM 67.2170 54.8143 78° East  Level Estimated
12:10PM 67.2422 55.1300 78° East  Level Estimated
12:11PM 67.2667 55.4464 79° East  Level Estimated
12:12PM 67.2906 55.7634 79° East  Level Estimated
12:13PM 67.3139 56.0810 79° East  Level Estimated
12:14PM 67.3365 56.3992 79° East  Level Estimated
12:15PM 67.3585 56.7180 80° East  Level Estimated
12:16PM 67.3799 57.0374 80° East  Level Estimated
12:17PM 67.4006 57.3574 80° East  Level Estimated
12:18PM 67.4207 57.6779 81° East  Level Estimated
12:19PM 67.4402 57.9990 81° East  Level Estimated
12:20PM 67.4590 58.3206 81° East  Level Estimated
12:21PM 67.4772 58.6426 81° East  Level Estimated
12:22PM 67.4948 58.9652 82° East  Level Estimated
12:23PM 67.5117 59.2882 82° East  Level Estimated
12:24PM 67.5279 59.6117 82° East  Level Estimated
12:25PM 67.5436 59.9356 83° East  Level Estimated
12:26PM 67.5585 60.2599 83° East  Level Estimated
12:27PM 67.5729 60.5846 83° East  Level Estimated
12:28PM 67.5865 60.9098 84° East  Level Estimated
12:29PM 67.5995 61.2352 84° East  Level Estimated
12:30PM 67.6119 61.5611 84° East  Level Estimated
12:31PM 67.6236 61.8872 84° East  Level Estimated
12:32PM 67.6347 62.2137 85° East  Level Estimated
12:33PM 67.6451 62.5405 85° East  Level Estimated
12:34PM 67.6549 62.8675 85° East  Level Estimated
12:35PM 67.6639 63.1949 86° East  Level Estimated
12:36PM 67.6724 63.5224 86° East  Level Estimated
12:37PM 67.6802 63.8502 86° East  Level Estimated
12:38PM 67.6873 64.1782 87° East  Level Estimated
12:39PM 67.6937 64.5064 87° East  Level Estimated
12:40PM 67.6995 64.8347 87° East  Level Estimated
12:41PM 67.7047 65.1633 87° East  Level Estimated
12:42PM 67.7092 65.4919 88° East  Level Estimated
12:43PM 67.7130 65.8207 88° East  Level Estimated
12:44PM 67.7161 66.1495 88° East  Level Estimated
12:45PM 67.7186 66.4785 89° East  Level Estimated
12:46PM 67.7204 66.8075 89° East  Level Estimated
12:47PM 67.7216 67.1365 89° East  Level Estimated
12:48PM 67.7221 67.4656 90° East  Level Estimated
12:49PM 67.7219 67.7946 90° East  Level Estimated
12:50PM 67.7211 68.1237 90° East  Level Estimated
12:51PM 67.7196 68.4527 91° East  Level Estimated
12:52PM 67.7175 68.7817 91° East  Level Estimated
12:53PM 67.7147 69.1106 91° East  Level Estimated
12:54PM 67.7112 69.4394 91° East  Level Estimated
12:55PM 67.7070 69.7681 92° East  Level Estimated
12:56PM 67.7022 70.0967 92° East  Level Estimated
12:57PM 67.6968 70.4251 92° East  Level Estimated
12:58PM 67.6907 70.7534 93° East  Level Estimated
12:59PM 67.6839 71.0815 93° East  Level Estimated
01:00PM 67.6764 71.4094 93° East  Level Estimated
01:01PM 67.6683 71.7370 94° East  Level Estimated
01:02PM 67.6596 72.0645 94° East  Level Estimated
01:03PM 67.6502 72.3917 94° East  Level Estimated
01:04PM 67.6401 72.7186 94° East  Level Estimated
01:05PM 67.6294 73.0452 95° East  Level Estimated
01:06PM 67.6180 73.3716 95° East  Level Estimated
01:07PM 67.6059 73.6975 95° East  Level Estimated
01:08PM 67.5932 74.0232 96° East  Level Estimated
01:09PM 67.5799 74.3485 96° East  Level Estimated
01:10PM 67.5659 74.6734 96° East  Level Estimated
01:11PM 67.5513 74.9980 97° East  Level Estimated
01:12PM 67.5360 75.3221 97° East  Level Estimated
01:13PM 67.5201 75.6458 97° East  Level Estimated
01:14PM 67.5035 75.9690 97° East  Level Estimated
01:15PM 67.4863 76.2918 98° East  Level Estimated
01:16PM 67.4684 76.6142 98° East  Level Estimated
01:17PM 67.4499 76.9360 98° East  Level Estimated
01:18PM 67.4307 77.2573 99° East  Level Estimated
01:19PM 67.4109 77.5781 99° East  Level Estimated
01:20PM 67.3905 77.8983 99° East  Level Estimated
01:21PM 67.3695 78.2180 100° East  Level Estimated
01:22PM 67.3478 78.5371 100° East  Level Estimated
01:23PM 67.3255 78.8557 100° East  Level Estimated
01:24PM 67.3025 79.1736 100° East  Level Estimated
01:25PM 67.2789 79.4909 101° East  Level Estimated
01:26PM 67.2547 79.8076 101° East  Level Estimated
01:27PM 67.2299 80.1236 101° East  Level Estimated
01:28PM 67.2045 80.4390 102° East  Level Estimated
01:29PM 67.1784 80.7537 102° East  Level Estimated
01:30PM 67.1517 81.0677 102° East  Level Estimated
01:31PM 67.1245 81.3811 102° East  Level Estimated
01:32PM 67.0965 81.6937 103° East  Level Estimated
01:33PM 67.0680 82.0055 103° East  Level Estimated
01:34PM 67.0389 82.3167 103° East  Level Estimated
01:35PM 67.0092 82.6271 104° East  Level Estimated
01:36PM 66.9789 82.9367 104° East  Level Estimated
01:37PM 66.9479 83.2455 104° East  Level Estimated
01:38PM 66.9164 83.5536 104° East  Level Estimated
01:39PM 66.8843 83.8608 105° East  Level Estimated
01:40PM 66.8515 84.1672 105° East  Level Estimated
01:41PM 66.8182 84.4728 105° East  Level Estimated
01:42PM 66.7843 84.7776 106° East  Level Estimated
01:43PM 66.7499 85.0815 106° East  Level Estimated
01:44PM 66.7148 85.3846 106° East  Level Estimated
01:45PM 66.6791 85.6868 106° East  Level Estimated
01:46PM 66.6429 85.9881 107° East  Level Estimated
01:47PM 66.6061 86.2886 107° East  Level Estimated
01:48PM 66.5687 86.5881 107° East  Level Estimated
01:49PM 66.5308 86.8867 108° East  Level Estimated
01:50PM 66.4923 87.1844 108° East  Level Estimated
01:51PM 66.4532 87.4812 108° East  Level Estimated
01:52PM 66.4136 87.7771 108° East  Level Estimated
01:53PM 66.3734 88.0720 109° East  Level Estimated
01:54PM 66.3327 88.3659 109° East  Level Estimated
01:55PM 66.2914 88.6589 109° East  Level Estimated
01:56PM 66.2495 88.9510 109° East  Level Estimated
01:57PM 66.2071 89.2420 110° East  Level Estimated
01:58PM 66.1642 89.5321 110° East  Level Estimated
01:59PM 66.1207 89.8212 110° East  Level Estimated
02:00PM 66.0767 90.1093 111° Southeast  Level Estimated
02:01PM 66.0321 90.3964 111° Southeast  Level Estimated
02:02PM 65.9870 90.6825 111° Southeast  Level Estimated
02:03PM 65.9414 90.9675 111° Southeast  Level Estimated
02:04PM 65.8953 91.2516 112° Southeast  Level Estimated
02:05PM 65.8486 91.5346 112° Southeast  Level Estimated
02:06PM 65.8014 91.8166 112° Southeast  Level Estimated
02:07PM 65.7537 92.0975 112° Southeast  Level Estimated
02:08PM 65.7055 92.3774 113° Southeast  Level Estimated
02:09PM 65.6568 92.6563 113° Southeast  Level Estimated
02:10PM 65.6075 92.9341 113° Southeast  Level Estimated
02:11PM 65.5578 93.2109 113° Southeast  Level Estimated
02:12PM 65.5075 93.4866 114° Southeast  Level Estimated
02:13PM 65.4568 93.7612 114° Southeast  Level Estimated
02:14PM 65.4056 94.0348 114° Southeast  Level Estimated
02:15PM 65.3538 94.3072 114° Southeast  Level Estimated
02:16PM 65.3016 94.5787 115° Southeast  Level Estimated
02:17PM 65.2489 94.8490 115° Southeast  Level Estimated
02:18PM 65.1957 95.1182 115° Southeast  Level Estimated
02:19PM 65.1421 95.3864 115° Southeast  Level Estimated
02:20PM 65.0879 95.6535 116° Southeast  Level Estimated
02:21PM 65.0333 95.9195 116° Southeast  Level Estimated
02:22PM 64.9782 96.1844 116° Southeast  Level Estimated
02:23PM 64.9227 96.4482 116° Southeast  Level Estimated
02:24PM 64.8666 96.7109 117° Southeast  Level Estimated
02:25PM 64.8102 96.9725 117° Southeast  Level Estimated
02:26PM 64.7532 97.2330 117° Southeast  Level Estimated
02:27PM 64.6958 97.4924 117° Southeast  Level Estimated
02:28PM 64.6380 97.7507 118° Southeast  Level Estimated
02:29PM 64.5797 98.0080 118° Southeast  Level Estimated
02:30PM 64.5209 98.2641 118° Southeast  Level Estimated
02:31PM 64.4618 98.5191 118° Southeast  Level Estimated
02:32PM 64.4021 98.7730 118° Southeast  Level Estimated
02:33PM 64.3421 99.0258 119° Southeast  Level Estimated
02:34PM 64.2816 99.2775 119° Southeast  Level Estimated
02:35PM 64.2207 99.5281 119° Southeast  Level Estimated
02:36PM 64.1593 99.7775 119° Southeast  Level Estimated
02:37PM 64.0975 100.0259 120° Southeast  Level Estimated
02:38PM 64.0353 100.2732 120° Southeast  Level Estimated
02:39PM 63.9727 100.5193 120° Southeast  Level Estimated
02:40PM 63.9097 100.7644 120° Southeast  Level Estimated
02:41PM 63.8463 101.0084 120° Southeast  Level Estimated
02:42PM 63.7824 101.2512 121° Southeast  Level Estimated
02:43PM 63.7182 101.4930 121° Southeast  Level Estimated
02:44PM 63.6535 101.7337 121° Southeast  Level Estimated
02:45PM 63.5884 101.9732 121° Southeast  Level Estimated
02:46PM 63.5230 102.2117 122° Southeast  Level Estimated
02:47PM 63.4571 102.4491 122° Southeast  Level Estimated
02:48PM 63.3909 102.6853 122° Southeast  Level Estimated
02:49PM 63.3243 102.9205 122° Southeast  Level Estimated
02:50PM 63.2572 103.1546 122° Southeast  Level Estimated
02:51PM 63.1898 103.3876 123° Southeast  Level Estimated
02:52PM 63.1221 103.6196 123° Southeast  Level Estimated
02:53PM 63.0539 103.8504 123° Southeast  Level Estimated
02:54PM 62.9854 104.0802 123° Southeast  Level Estimated
02:55PM 62.9165 104.3089 123° Southeast  Level Estimated
02:56PM 62.8472 104.5365 124° Southeast  Level Estimated
02:57PM 62.7776 104.7630 124° Southeast  Level Estimated
02:58PM 62.7076 104.9885 124° Southeast  Level Estimated
02:59PM 62.6372 105.2129 124° Southeast  Level Estimated
03:00PM 62.5665 105.4362 124° Southeast  Level Estimated
03:01PM 62.4954 105.6585 125° Southeast  Level Estimated
03:02PM 62.4240 105.8797 125° Southeast  Level Estimated
03:03PM 62.3522 106.0999 125° Southeast  Level Estimated
03:04PM 62.2801 106.3190 125° Southeast  Level Estimated
03:05PM 62.2077 106.5370 125° Southeast  Level Estimated
03:06PM 62.1349 106.7540 126° Southeast  Level Estimated
03:07PM 62.0617 106.9700 126° Southeast  Level Estimated
03:08PM 61.9883 107.1849 126° Southeast  Level Estimated
03:09PM 61.9145 107.3988 126° Southeast  Level Estimated
03:10PM 61.8403 107.6117 126° Southeast  Level Estimated
03:11PM 61.7659 107.8235 127° Southeast  Level Estimated
03:12PM 61.6911 108.0343 127° Southeast  Level Estimated
03:13PM 61.6160 108.2441 127° Southeast  Level Estimated
03:14PM 61.5405 108.4528 127° Southeast  Level Estimated
03:15PM 61.4648 108.6606 127° Southeast  Level Estimated
03:16PM 61.3887 108.8673 127° Southeast  Level Estimated
03:17PM 61.3124 109.0731 128° Southeast  Level Estimated
03:18PM 61.2357 109.2778 128° Southeast  Level Estimated
03:19PM 61.1587 109.4815 128° Southeast  Level Estimated
03:20PM 61.0814 109.6842 128° Southeast  Level Estimated
03:21PM 61.0038 109.8860 128° Southeast  Level Estimated
03:22PM 60.9259 110.0868 129° Southeast  Level Estimated
03:23PM 60.8477 110.2866 129° Southeast  Level Estimated
03:24PM 60.7692 110.4854 129° Southeast  Level Estimated
03:25PM 60.6904 110.6832 129° Southeast  Level Estimated
03:26PM 60.6114 110.8801 129° Southeast  Level Estimated
03:27PM 60.5320 111.0760 129° Southeast  Level Estimated
03:28PM 60.4524 111.2709 130° Southeast  Level Estimated
03:29PM 60.3724 111.4649 130° Southeast  Level Estimated
03:30PM 60.2922 111.6579 130° Southeast  Level Estimated
03:31PM 60.2117 111.8500 130° Southeast  Level Estimated
03:31PM 58.9860 119.9410 130° Southeast 473 544 39,000  Level FlightAware
03:32PM 60.1310 112.0412 130° Southeast  Level Estimated
03:32PM 58.9290 120.0920 126° Southeast 475 547 39,000  Level FlightAware
03:32PM 58.8710 120.2420 127° Southeast 478 550 39,000  Level FlightAware
03:33PM 58.8010 120.4240 127° Southeast 480 552 39,000  Level FlightAware
03:34PM 58.7470 120.5610 127° Southeast 480 552 39,000  Level FlightAware
03:35PM 58.6320 120.8460 128° Southeast 472 543 39,000  Level FlightAware
03:36PM 58.5840 120.9510 131° Southeast 472 543 39,000  Level FlightAware
03:37PM 58.5970 120.9140 304° West 469 540 39,000  Level FlightAware
03:38PM 58.4290 121.2390 135° Southeast 474 545 39,000  Level FlightAware
03:39PM 58.3250 121.4340 135° Southeast 478 550 39,000  Level FlightAware
03:39PM 58.2680 121.5440 135° Southeast 478 550 39,000  Level FlightAware
03:40PM 58.2160 121.6420 135° Southeast 478 550 39,000  Level FlightAware
03:41PM 58.1300 121.8020 135° Southeast 475 547 39,000  Level FlightAware
03:42PM 58.0470 121.9570 135° Southeast 477 549 39,000  Level FlightAware
03:42PM 57.9790 122.0820 136° Southeast 478 550 39,000  Level FlightAware
03:43PM 57.9050 122.2180 136° Southeast 478 550 39,000  Level FlightAware
03:44PM 57.8590 122.3040 135° Southeast 478 550 39,000  Level FlightAware
03:45PM 57.6940 122.6020 144° Southeast 480 552 39,000  Level FlightAware
03:46PM 57.6813 122.5483 144° Southeast  Level Estimated
03:46PM 57.6130 122.7470 136° Southeast 481 554 39,000  Level FlightAware
03:47PM 57.5460 122.8670 136° Southeast 483 556 39,000  Level FlightAware
03:48PM 57.4650 123.0110 136° Southeast 482 555 39,000  Level FlightAware
03:48PM 57.3980 123.1290 136° Southeast 476 548 39,000  Level FlightAware
03:49PM 57.3330 123.2440 136° Southeast 476 548 39,000  Level FlightAware
03:50PM 57.2350 123.4140 137° Southeast 478 550 39,000  Level FlightAware
03:51PM 57.1710 123.5250 137° Southeast 476 548 39,000  Level FlightAware
03:52PM 57.1030 123.6430 137° Southeast 476 548 39,000  Level FlightAware
03:52PM 57.0410 123.7480 137° Southeast 479 551 39,000  Level FlightAware
03:53PM 56.9720 123.8660 137° Southeast 481 554 39,000  Level FlightAware
03:54PM 56.9000 123.9870 137° Southeast 481 554 39,000  Level FlightAware
03:55PM 56.8160 124.1300 137° Southeast 479 551 39,000  Level FlightAware
03:55PM 56.7610 124.2220 137° Southeast 476 548 39,000  Level FlightAware
03:56PM 56.6680 124.3770 137° Southeast 479 551 39,000  Level FlightAware
03:57PM 56.6030 124.4840 138° Southeast 480 552 39,000  Level FlightAware
03:58PM 56.4910 124.6700 137° Southeast 481 554 39,000  Level FlightAware
03:59PM 56.4400 124.7570 137° Southeast 481 554 39,000  Level FlightAware
03:59PM 56.3900 124.8410 137° Southeast 481 554 39,000  Level FlightAware
04:00PM 56.2810 125.0240 137° Southeast 481 554 39,000  Level FlightAware
04:01PM 56.2280 125.1130 137° Southeast 481 554 39,000  Level FlightAware
04:03PM 56.1040 125.3210 137° Southeast 481 554 39,000  Level FlightAware
04:03PM 56.0540 125.4040 137° Southeast 481 554 39,000  Level FlightAware
04:04PM 55.9890 125.5130 137° Southeast 481 554 39,000  Level FlightAware
04:05PM 55.9380 125.5980 137° Southeast 481 554 39,000  Level FlightAware
04:06PM 55.8530 125.7380 137° Southeast 481 554 39,000  Level FlightAware
04:06PM 55.8060 125.8160 137° Southeast 481 554 39,000  Level FlightAware
04:07PM 55.7400 125.9270 137° Southeast 481 554 39,000  Level FlightAware
04:10PM 55.4708 126.2270 148° Southeast  Level Estimated
04:11PM 55.3650 126.3435 148° Southeast  Level Estimated
04:12PM 55.2591 126.4594 148° Southeast  Level Estimated
04:13PM 55.1531 126.5747 148° Southeast  Level Estimated
04:14PM 55.0470 126.6893 148° Southeast  Level Estimated
04:15PM 54.9408 126.8034 148° Southeast  Level Estimated
04:16PM 54.8345 126.9169 148° Southeast  Level Estimated
04:17PM 54.7281 127.0297 149° Southeast  Level Estimated
04:18PM 54.6215 127.1420 149° Southeast  Level Estimated
04:19PM 54.5149 127.2537 149° Southeast  Level Estimated
04:20PM 54.4082 127.3648 149° Southeast  Level Estimated
04:21PM 54.3013 127.4753 149° Southeast  Level Estimated
04:22PM 54.1944 127.5853 149° Southeast  Level Estimated
04:23PM 54.0874 127.6946 149° Southeast  Level Estimated
04:24PM 53.9803 127.8035 149° Southeast  Level Estimated
04:25PM 53.8730 127.9117 149° Southeast  Level Estimated
04:26PM 53.7657 128.0194 149° Southeast  Level Estimated
04:27PM 53.6583 128.1266 149° Southeast  Level Estimated
04:28PM 53.5508 128.2332 149° Southeast  Level Estimated
04:29PM 53.4431 128.3393 150° Southeast  Level Estimated
04:30PM 53.3354 128.4448 150° Southeast  Level Estimated
04:31PM 53.2276 128.5499 150° Southeast  Level Estimated
04:32PM 53.1197 128.6543 150° Southeast  Level Estimated
04:33PM 53.0118 128.7583 150° Southeast  Level Estimated
04:34PM 52.9037 128.8617 150° Southeast  Level Estimated
04:35PM 52.7955 128.9646 150° Southeast  Level Estimated
04:36PM 52.6873 129.0671 150° Southeast  Level Estimated
04:37PM 52.5789 129.1690 150° Southeast  Level Estimated
04:38PM 52.4705 129.2704 150° Southeast  Level Estimated
04:39PM 52.3620 129.3713 150° Southeast  Level Estimated
04:40PM 52.2534 129.4717 150° Southeast  Level Estimated
04:41PM 52.1447 129.5716 151° Southeast  Level Estimated
04:42PM 52.0359 129.6710 151° Southeast  Level Estimated
04:43PM 51.9271 129.7700 151° Southeast  Level Estimated
04:44PM 51.8182 129.8684 151° Southeast  Level Estimated
04:45PM 51.7092 129.9664 151° Southeast  Level Estimated
04:46PM 51.6001 130.0639 151° Southeast  Level Estimated
04:47PM 51.4909 130.1610 151° Southeast  Level Estimated
04:47PM 51.3150 132.0650 151° Southeast 505 581 39,000  Level FlightAware
04:48PM 51.3816 130.2576 151° Southeast  Level Estimated
04:49PM 51.2723 130.3537 151° Southeast  Level Estimated
04:49PM 51.2020 132.2040 142° Southeast 504 580 39,000  Level FlightAware
04:49PM 51.1090 132.3180 142° Southeast 504 580 39,000  Level FlightAware
04:50PM 51.0120 132.4330 143° Southeast 505 581 39,000  Level FlightAware
04:51PM 50.9380 132.5130 146° Southeast 501 577 39,000  Level FlightAware
04:52PM 50.8420 132.6190 145° Southeast 500 575 39,000  Level FlightAware
04:53PM 50.7410 132.7290 145° Southeast 499 574 39,000  Level FlightAware
04:53PM 50.6580 132.8200 145° Southeast 501 577 39,000  Level FlightAware
04:54PM 50.5890 132.8950 145° Southeast 503 579 39,000  Level FlightAware
04:55PM 50.4750 133.0180 146° Southeast 507 583 39,000  Level FlightAware
04:56PM 50.3880 133.1120 145° Southeast 507 583 39,000  Level FlightAware
04:56PM 50.3190 133.1860 146° Southeast 504 580 39,000  Level FlightAware
04:57PM 50.2240 133.2880 146° Southeast 505 581 39,000  Level FlightAware
04:58PM 50.1390 133.3780 146° Southeast 508 585 39,000  Level FlightAware
04:58PM 50.0680 133.4540 145° Southeast 504 580 39,000  Level FlightAware
04:59PM 49.9650 133.5620 146° Southeast 499 574 39,000  Level FlightAware
05:00PM 49.8330 133.6990 146° Southeast 495 570 39,000  Level FlightAware
05:01PM 49.7310 133.8050 146° Southeast 496 571 39,000  Level FlightAware
05:02PM 49.6260 133.9140 146° Southeast 502 578 39,000  Level FlightAware
05:03PM 49.5430 134.0000 146° Southeast 501 577 39,000  Level FlightAware
05:04PM 49.4690 134.0760 146° Southeast 499 574 39,000  Level FlightAware
05:05PM 49.3570 134.1900 146° Southeast 501 577 39,000  Level FlightAware
05:05PM 49.2990 134.2500 146° Southeast 501 577 39,000  Level FlightAware
05:06PM 49.2190 134.3330 146° Southeast 501 577 39,000  Level FlightAware
05:07PM 49.1580 134.3950 146° Southeast 501 577 39,000  Level FlightAware
05:08PM 49.0830 134.4720 146° Southeast 501 577 39,000  Level FlightAware
05:08PM 49.0080 134.5730 139° Southeast 504 580 39,000  Level FlightAware
05:09PM 48.9440 134.6620 138° Southeast 506 582 39,000  Level FlightAware
05:10PM 48.8530 134.7890 137° Southeast 506 582 39,000  Level FlightAware
05:10PM 48.8010 134.8630 137° Southeast 506 582 39,000  Level FlightAware
05:11PM 48.7230 134.9660 139° Southeast 505 581 39,000  Level FlightAware
05:12PM 48.6670 135.0460 137° Southeast 505 581 39,000  Level FlightAware
05:12PM 48.6000 135.1400 137° Southeast 505 581 39,000  Level FlightAware
05:13PM 48.5300 135.2390 137° Southeast 505 581 39,000  Level FlightAware
05:13PM 48.4370 135.2830 163° South 496 571 39,000  Level FlightAware
05:14PM 48.3240 135.3590 156° South 496 571 39,000  Level FlightAware
05:17PM 48.0653 135.4869 162° South  Level Estimated
05:17PM 48.0390 135.5470 162° South 497 572 39,000  Level FlightAware
05:17PM 47.9420 135.6110 156° South 495 570 39,000  Level FlightAware
05:18PM 47.8560 135.6680 156° South 493 567 39,000  Level FlightAware
05:19PM 47.7640 135.7280 156° South 495 570 39,000  Level FlightAware
05:19PM 47.6730 135.7870 156° South 495 570 39,000  Level FlightAware
05:20PM 47.5990 135.8350 156° South 497 572 39,000  Level FlightAware
05:21PM 47.5050 135.8960 156° South 498 573 39,000  Level FlightAware
05:21PM 47.4150 135.9540 156° South 493 567 39,000  Level FlightAware
05:22PM 47.3260 136.0110 157° South 488 562 39,000  Level FlightAware
05:23PM 47.2340 136.0700 156° South 489 563 39,000  Level FlightAware
05:24PM 47.1460 136.1290 155° Southeast 492 566 39,000  Level FlightAware
05:24PM 47.0700 136.1800 155° Southeast 490 564 39,000  Level FlightAware
05:25PM 46.9900 136.2320 156° South 488 562 39,000  Level FlightAware
05:26PM 46.8980 136.2910 156° South 487 560 39,000  Level FlightAware
05:26PM 46.7920 136.3360 164° South 481 554 39,000  Level FlightAware
05:27PM 46.7110 136.3520 172° South 481 554 39,000  Level FlightAware
05:28PM 46.6240 136.3650 174° South 482 555 39,000  Level FlightAware
05:29PM 46.5060 136.3840 174° South 485 558 39,000  Level FlightAware
05:29PM 46.4060 136.3990 174° South 487 560 39,000  Level FlightAware
05:31PM 46.2060 136.4290 174° South 485 558 39,000  Level FlightAware
05:32PM 46.1070 136.4440 174° South 482 555 39,000  Level FlightAware
05:32PM 45.9940 136.4600 174° South 481 554 39,000  Level FlightAware
05:33PM 45.9300 136.4700 174° South 481 554 39,000  Level FlightAware
05:34PM 45.7850 136.4910 174° South 486 559 39,000  Level FlightAware
05:35PM 45.7000 136.5030 174° South 487 560 39,000  Level FlightAware
05:36PM 45.5750 136.5210 174° South 490 564 39,000  Level FlightAware
05:36PM 45.4950 136.5330 174° South 489 563 39,000  Level FlightAware
05:37PM 45.4030 136.5470 174° South 489 563 39,000  Level FlightAware
05:38PM 45.3280 136.5580 174° South 489 563 39,000  Level FlightAware
05:38PM 45.2600 136.5680 174° South 489 563 39,000  Level FlightAware
05:39PM 45.1680 136.5820 174° South 489 563 39,000  Level FlightAware
05:40PM 45.0990 136.5920 174° South 489 563 39,000  Level FlightAware
05:41PM 45.0070 136.6060 174° South 489 563 39,000  Level FlightAware
05:41PM 44.9380 136.6160 174° South 489 563 39,000  Level FlightAware
05:42PM 44.8450 136.6300 174° South 489 563 39,000  Level FlightAware
05:43PM 44.7800 136.6400 174° South 489 563 39,000  Level FlightAware
05:43PM 44.6880 136.6530 174° South 489 563 39,000  Level FlightAware
05:44PM 44.6190 136.6640 174° South 489 563 39,000  Level FlightAware
05:45PM 44.5190 136.6780 174° South 489 563 39,000  Level FlightAware
05:45PM 44.4510 136.6880 174° South 489 563 39,000  Level FlightAware
05:48PM 44.2031 136.8088 161° South  Level Estimated
05:49PM 44.0841 136.8664 161° South  Level Estimated
05:50PM 43.9650 136.9237 161° South  Level Estimated
05:51PM 43.8459 136.9809 161° South  Level Estimated
05:52PM 43.7268 137.0378 161° South  Level Estimated
05:53PM 43.6076 137.0945 161° South  Level Estimated
05:54PM 43.4885 137.1510 161° South  Level Estimated
05:55PM 43.3693 137.2072 161° South  Level Estimated
05:55PM 42.9400 136.7280 161° South 480 552 39,000  Level FlightAware
05:55PM 42.8430 136.7320 178° South 482 555 39,000  Level FlightAware
05:56PM 42.7370 136.7370 178° South 481 554 39,000  Level FlightAware
05:57PM 42.6590 136.7400 178° South 482 555 39,000  Level FlightAware
05:58PM 42.5350 136.7450 178° South 480 552 39,000  Level FlightAware
05:58PM 42.4580 136.7490 178° South 479 551 39,000  Level FlightAware
05:59PM 42.3680 136.7530 178° South 479 551 39,000  Level FlightAware
06:00PM 42.2980 136.7560 178° South 479 551 39,000  Level FlightAware
06:00PM 42.2060 136.7610 178° South 479 551 39,000  Level FlightAware
06:01PM 42.1350 136.7640 178° South 479 551 39,000  Level FlightAware
06:02PM 42.0650 136.7670 178° South 479 551 39,000  Level FlightAware
06:03PM 41.8800 136.7730 179° South 468 539 39,000  Level FlightAware
06:03PM 41.7880 136.7770 178° South 469 540 39,000  Level FlightAware
06:04PM 41.7130 136.7810 178° South 468 539 39,000  Level FlightAware
06:05PM 41.6000 136.8080 170° South 482 555 39,000  Level FlightAware
06:06PM 41.4840 136.8590 162° South 490 564 39,000  Level FlightAware
06:06PM 41.3930 136.9010 161° South 489 563 39,000  Level FlightAware
06:07PM 41.2950 136.9450 161° South 494 568 39,000  Level FlightAware
06:08PM 41.2070 136.9850 161° South 491 565 39,000  Level FlightAware
06:08PM 41.1200 137.0240 161° South 488 562 39,000  Level FlightAware
06:09PM 41.0300 137.0650 161° South 489 563 39,000  Level FlightAware
06:10PM 40.9400 137.1050 161° South 491 565 39,000  Level FlightAware
06:10PM 40.8410 137.1500 161° South 493 567 39,000  Level FlightAware
06:11PM 40.7610 137.1860 161° South 494 568 39,000  Level FlightAware
06:12PM 40.6750 137.2230 162° South 493 567 39,000  Level FlightAware
06:13PM 40.5670 137.2710 161° South 496 571 39,000  Level FlightAware
06:13PM 40.4810 137.3100 161° South 492 566 39,000  Level FlightAware
06:14PM 40.4110 137.3400 162° South 491 565 39,000  Level FlightAware
06:14PM 40.3180 137.3810 161° South 494 568 39,000  Level FlightAware
06:16PM 40.1180 137.4690 161° South 490 564 39,000  Level FlightAware
06:17PM 40.0350 137.5050 162° South 490 564 39,000  Level FlightAware
06:17PM 39.9320 137.5500 161° South 489 563 39,000  Level FlightAware
06:18PM 39.8460 137.5870 162° South 490 564 39,000  Level FlightAware
06:19PM 39.7490 137.6300 161° South 493 567 39,000  Level FlightAware
06:20PM 39.6580 137.6690 162° South 493 567 39,000  Level FlightAware
06:20PM 39.5600 137.7110 162° South 493 567 39,000  Level FlightAware
06:21PM 39.4720 137.7490 162° South 494 568 39,000  Level FlightAware
06:22PM 39.3840 137.7860 162° South 494 568 39,000  Level FlightAware
06:22PM 39.2860 137.8310 160° South 509 586 39,000  Level FlightAware
06:23PM 39.2000 137.8860 154° Southeast 520 598 39,000  Level FlightAware
06:24PM 39.1090 137.9620 147° Southeast 527 606 39,000  Level FlightAware
06:24PM 39.0300 138.0490 139° Southeast 544 626 39,000 -120 Level FlightAware
06:25PM 38.9560 138.1320 139° Southeast 536 617 38,900 -660 Descending FlightAware
06:26PM 38.8700 138.2300 138° Southeast 536 617 38,100 -660 Descending FlightAware
06:27PM 38.7970 138.3120 139° Southeast 523 602 38,000 -120 Descending FlightAware
06:27PM 38.7240 138.3950 138° Southeast 523 602 38,000  Level FlightAware
06:28PM 38.6410 138.4870 139° Southeast 529 609 38,000  Level FlightAware
06:29PM 38.5680 138.5690 139° Southeast 531 611 38,000  Level FlightAware
06:29PM 38.4940 138.6520 139° Southeast 534 615 38,000  Level FlightAware
06:30PM 38.4110 138.7450 139° Southeast 536 617 38,000  Level FlightAware
06:31PM 38.3390 138.8240 139° Southeast 537 618 38,000 -240 Level FlightAware
06:31PM 38.2650 138.9060 139° Southeast 541 623 37,700 -780 Descending FlightAware
06:32PM 38.1780 139.0020 139° Southeast 544 626 36,900 -1,560 Descending FlightAware
06:33PM 38.0980 139.0900 139° Southeast 546 628 35,500 -2,100 Descending FlightAware
06:34PM 38.0140 139.1810 140° Southeast 547 629 34,000 -2,520 Descending FlightAware
06:34PM 37.9350 139.2680 139° Southeast 558 642 32,000 -2,520 Descending FlightAware
06:35PM 37.8480 139.3620 140° Southeast 549 632 30,500 -1,920 Descending FlightAware
06:36PM 37.7700 139.4470 139° Southeast 541 623 29,300 -1,800 Descending FlightAware
06:36PM 37.6890 139.5400 138° Southeast 539 620 28,000 -1,680 Descending FlightAware
06:37PM 37.6250 139.6330 131° Southeast 533 613 27,000 -1,500 Descending FlightAware
06:38PM 37.5690 139.7200 129° Southeast 517 595 26,000 -1,260 Descending FlightAware
06:39PM 37.4860 139.8460 130° Southeast 498 573 25,000 -600 Descending FlightAware
06:39PM 37.3980 139.9260 144° Southeast 498 573 25,000  Level FlightAware
06:40PM 37.2850 140.0230 146° Southeast 491 565 25,000 -120 Level FlightAware
06:41PM 37.2310 140.0690 146° Southeast 500 575 24,900 -1,260 Descending FlightAware
06:42PM 37.1250 140.1600 146° Southeast 493 567 23,200 -1,800 Descending FlightAware
06:42PM 37.0450 140.2290 145° Southeast 467 537 22,200 -1,500 Descending FlightAware
06:43PM 36.9820 140.2830 146° Southeast 449 517 21,100 -1,740 Descending FlightAware
06:44PM 36.9150 140.3400 146° Southeast 435 501 20,000 -1,860 Descending FlightAware
06:45PM 36.8340 140.4080 146° Southeast 428 493 18,600 -1,500 Descending FlightAware
06:45PM 36.7820 140.4520 146° Southeast 411 473 18,000 -1,320 Descending FlightAware
06:46PM 36.7040 140.5180 146° Southeast 405 466 16,800 -1,380 Descending FlightAware
06:47PM 36.6430 140.5700 146° Southeast 395 455 16,000 -1,260 Descending FlightAware
06:47PM 36.5760 140.6170 151° Southeast 389 448 15,100 -840 Descending FlightAware
06:48PM 36.5030 140.6060 187° South 379 436 14,900 -780 Descending FlightAware
06:49PM 36.4220 140.5760 197° South 372 428 14,000 -1,380 Descending FlightAware
06:49PM 36.3560 140.5510 197° South 374 430 13,000 -1,500 Descending FlightAware
06:50PM 36.2880 140.5410 187° South 352 405 12,000 -1,140 Descending FlightAware
06:51PM 36.2170 140.5370 183° South 325 374 11,400 -1,020 Descending FlightAware
06:52PM 36.1560 140.5330 183° South 287 330 10,500 -1,500 Descending FlightAware
06:52PM 36.1240 140.5310 183° South 275 316 9,700 -2,100 Descending FlightAware
06:52PM 36.0950 140.5300 182° South 275 316 8,900 -1,680 Descending FlightAware
06:53PM 36.0680 140.5280 183° South 273 314 8,500 -1,980 Descending FlightAware
06:53PM 36.0350 140.5260 183° South 268 308 7,300 -1,740 Descending FlightAware
06:54PM 36.0030 140.5200 189° South 237 273 6,900 -900 Descending FlightAware
06:54PM 35.9930 140.5090 222° Southwest 230 265 6,700 -1,020 Descending FlightAware
06:54PM 35.9880 140.4850 256° West 232 267 6,400 -840 Descending FlightAware
06:55PM 35.9860 140.4520 266° West 225 259 6,100 -780 Descending FlightAware
06:55PM 35.9850 140.4350 266° West 217 250 5,900 -1,020 Descending FlightAware
06:55PM 35.9830 140.4070 265° West 207 238 5,500 -1,020 Descending FlightAware
06:56PM 35.9810 140.3700 266° West 198 228 5,000 -840 Descending FlightAware
06:56PM 35.9810 140.3590 270° West 192 221 4,900 -1,020 Descending FlightAware
06:56PM 35.9790 140.3250 266° West 184 212 4,300 -1,200 Descending FlightAware
06:57PM 35.9760 140.2990 262° West 179 206 3,800 -1,140 Descending FlightAware
06:58PM 35.9540 140.2670 230° Southwest 169 194 3,000 -840 Descending FlightAware
06:58PM 35.9350 140.2660 182° South 166 191 2,900  Descending FlightAware
06:59PM 35.9040 140.2740 168° South 169 194 3,000 -300 Climbing FlightAware
06:59PM 35.8830 140.2900 148° Southeast 168 193 2,600 -780 Descending FlightAware
07:00PM 35.8670 140.3010 151° Southeast 157 181 2,300 -780 Descending FlightAware
07:00PM 35.8570 140.3090 147° Southeast 147 169 2,100 -780 Descending FlightAware
07:00PM 35.8450 140.3170 152° Southeast 134 154 1,800 -420 Descending FlightAware
07:01PM 35.8220 140.3340 149° Southeast 131 151 1,600 -660 Descending FlightAware
07:01PM 35.8130 140.3400 152° Southeast 135 155 1,200 -720 Descending FlightAware
07:02PM 35.8010 140.3490 149° Southeast 135 155 1,200  Level FlightAware
07:04PM 35.7647 140.3864 140° Southeast  Level Estimated
07:05PM 35.7647 140.3864 338° Northwest  Level Estimated
07:06PM 35.7647 140.3864 338° Northwest  Level Estimated
07:07PM 35.7647 140.3864 338° Northwest  Level Estimated
07:08PM 35.7647 140.3864 338° Northwest  Level Estimated
07:09PM 35.7647 140.3864 338° Northwest  Level Estimated
07:10PM 35.7647 140.3864 338° Northwest  Level Estimated
07:11PM 35.7647 140.3864 338° Northwest  Level Estimated
07:12PM 35.7647 140.3864 338° Northwest  Level Estimated
07:13PM 35.7647 140.3864 338° Northwest  Level Estimated
07:14PM 35.7647 140.3864 338° Northwest  Level Estimated